Loon Lake, Washington
Current Conditions -  °F | °C
As of 1:53 PM on Friday 28 Nov 2014 (Local Time) from KDEW Reporting Station
Few Clouds Few Clouds  
Wind Chill: 52°   Ceiling: Unl
Heat Index: 52°   Visibility: 10mi
Dew Point: 39°   Wind: 23mph
Humidity: 61%   Direction: 220°SW
Pressure: 29.35"   Gusts: 45mph
Location:  48.06°N, 117.63°W
Report Text: KDEW 282153Z AUTO 22020G39KT 10SM FEW044 11/04 A2935 RMK AO2 PK WND 22039/2145 SLP939 T01110039
Loading
Personal Weather Stations






























Interactive Weather Map New forecast layout! Learn more

10-Day Weather Forecast

Advertisements
Track Severe Weather on mobile